Time;durP1;ratioP1;P1;durP2;ratioP2;P2;SDS_P1;SDS_P2;PMS_P1;PMS_P2;Temp;Humidity;BMP_temperature;BMP_pressure;BME280_temperature;BME280_humidity;BME280_pressure;Samples;Min_cycle;Max_cycle;Signal;HPM_P1;HPM_P2
2021/06/15 00:01:32;;;;;;;;;;;;;;;17.01;48.26;101728.25;3621938;39;20042;-81
2021/06/15 00:04:01;;;;;;;4.00;1.10;;;;;;;16.90;49.21;101718.97;3613640;39;19982;-81
2021/06/15 00:06:28;;;;;;;6.50;1.08;;;;;;;16.77;50.23;101713.22;3604625;40;20758;-81
2021/06/15 00:08:59;;;;;;;2.78;0.95;;;;;;;16.66;49.94;101710.03;3612408;39;20036;-80
2021/06/15 00:11:29;;;;;;;3.20;0.90;;;;;;;16.59;50.64;101725.19;3605927;39;20064;-81
2021/06/15 00:13:57;;;;;;;3.30;1.17;;;;;;;16.49;52.27;101729.03;3619473;39;20028;-81
2021/06/15 00:19:16;;;;;;;3.53;1.27;;;;;;;16.32;52.11;101748.88;3567828;39;20545;-81
2021/06/15 00:21:43;;;;;;;3.15;1.10;;;;;;;16.27;52.80;101750.78;3564372;40;20627;-81
2021/06/15 00:24:10;;;;;;;4.33;1.10;;;;;;;16.22;52.20;101742.13;3614510;39;20022;-81
2021/06/15 00:32:30;;;;;;;3.40;1.13;;;;;;;15.94;51.94;101701.69;3634118;22;20020;-81
2021/06/15 00:35:01;;;;;;;3.42;0.98;;;;;;;16.04;52.32;101735.63;3616917;39;20364;-81
2021/06/15 00:37:35;;;;;;;6.35;1.42;;;;;;;15.97;52.06;101728.81;3618804;39;20024;-81
2021/06/15 00:40:05;;;;;;;4.63;1.38;;;;;;;15.90;52.54;101729.03;3598810;39;20033;-81
2021/06/15 00:42:34;;;;;;;3.13;0.95;;;;;;;15.85;52.75;101725.66;3602495;40;20030;-81
2021/06/15 00:45:07;;;;;;;3.20;1.10;;;;;;;15.78;52.71;101715.28;3649775;22;20352;-81
2021/06/15 00:47:40;;;;;;;5.00;1.10;;;;;;;15.72;53.18;101720.75;3633098;39;20035;-81
2021/06/15 00:50:16;;;;;;;7.07;1.35;;;;;;;15.65;52.62;101713.91;3636389;39;20058;-81
2021/06/15 00:58:37;;;;;;;3.42;1.35;;;;;;;15.45;54.59;101727.56;3627550;39;20028;-81
2021/06/15 01:01:14;;;;;;;5.63;1.90;;;;;;;15.36;54.27;101721.69;3612538;39;20147;-81
2021/06/15 01:03:50;;;;;;;4.80;1.30;;;;;;;15.32;53.75;101711.25;3621022;39;20030;-81
2021/06/15 01:06:41;;;;;;;3.75;1.23;;;;;;;15.35;53.03;101727.84;3616592;39;20678;-81
2021/06/15 01:09:43;;;;;;;4.13;1.45;;;;;;;15.30;52.95;101720.94;3619236;39;20035;-81
2021/06/15 01:12:28;;;;;;;4.63;1.30;;;;;;;15.27;53.43;101717.53;3612791;39;20016;-80
2021/06/15 01:15:08;;;;;;;5.28;1.02;;;;;;;15.22;54.87;101720.28;3591805;40;20033;-81
2021/06/15 01:17:39;;;;;;;4.25;1.75;;;;;;;15.17;53.82;101716.91;3612733;39;20036;-81
2021/06/15 01:20:28;;;;;;;2.72;1.20;;;;;;;15.16;53.88;101736.25;3611166;39;20020;-80
2021/06/15 01:23:33;;;;;;;5.35;1.58;;;;;;;15.15;53.71;101733.63;3612515;39;20056;-79
2021/06/15 01:26:30;;;;;;;4.35;1.52;;;;;;;15.10;53.73;101736.38;3606724;39;20085;-80
2021/06/15 01:29:17;;;;;;;4.75;1.30;;;;;;;15.08;53.97;101732.91;3604062;39;20028;-81
2021/06/15 01:31:48;;;;;;;3.83;1.25;;;;;;;15.08;55.24;101740.81;3599657;40;20025;-80
2021/06/15 01:34:25;;;;;;;9.10;2.03;;;;;;;15.06;54.17;101732.09;3608809;39;20025;-81
2021/06/15 01:37:04;;;;;;;4.55;1.00;;;;;;;15.04;54.56;101739.16;3611027;39;20888;-79
2021/06/15 01:39:49;;;;;;;5.00;1.83;;;;;;;15.05;54.42;101743.50;3603841;39;20085;-81
2021/06/15 01:42:29;;;;;;;5.90;1.70;;;;;;;15.00;55.18;101745.38;3595773;39;20027;-81
2021/06/15 01:45:13;;;;;;;5.00;1.58;;;;;;;14.97;54.47;101742.84;3605379;39;20020;-80
2021/06/15 01:47:49;;;;;;;5.53;1.40;;;;;;;14.97;55.67;101740.22;3637820;22;20035;-81
2021/06/15 01:50:21;;;;;;;2.92;1.25;;;;;;;14.87;54.88;101728.19;3596818;39;20061;-80
2021/06/15 01:52:51;;;;;;;3.55;1.15;;;;;;;14.86;55.44;101731.72;3590447;40;20033;-81
2021/06/15 01:55:19;;;;;;;3.27;0.83;;;;;;;14.88;55.67;101740.44;3629706;22;20036;-81
2021/06/15 01:57:54;;;;;;;3.95;1.08;;;;;;;14.83;54.99;101747.56;3604505;39;20034;-81
2021/06/15 02:03:29;;;;;;;2.03;0.75;;;;;;;14.77;53.95;101744.19;3568178;39;20084;-81
2021/06/15 02:06:00;;;;;;;4.43;1.35;;;;;;;14.71;54.94;101741.69;3548788;39;20026;-80
2021/06/15 02:08:41;;;;;;;4.00;1.33;;;;;;;14.67;54.91;101736.53;3567902;39;20024;-80
2021/06/15 02:11:28;;;;;;;4.93;1.40;;;;;;;14.61;55.71;101719.16;3571843;40;20057;-80
2021/06/15 02:14:19;;;;;;;4.57;1.35;;;;;;;14.60;56.40;101714.81;3558229;40;20072;-80
2021/06/15 02:17:20;;;;;;;4.38;1.60;;;;;;;14.52;56.23;101711.47;3562829;40;20070;-81
2021/06/15 02:20:09;;;;;;;4.85;1.55;;;;;;;14.51;56.55;101723.75;3563058;40;20098;-80
2021/06/15 02:22:37;;;;;;;3.33;1.33;;;;;;;14.47;55.41;101724.72;3563451;40;20024;-80
2021/06/15 02:25:05;;;;;;;;;;;;;;;14.50;53.72;101729.91;3568353;40;20080;-80
2021/06/15 02:27:35;;;;;;;7.47;1.55;;;;;;;14.45;55.30;101720.38;3553058;40;19956;-80
2021/06/15 02:30:10;;;;;;;3.92;1.67;;;;;;;14.43;55.54;101711.66;3528438;40;20064;-80
2021/06/15 02:35:59;;;;;;;4.53;1.38;;;;;;;14.32;55.61;101700.50;3668432;22;20030;-80
2021/06/15 02:38:34;;;;;;;3.85;1.40;;;;;;;14.36;54.96;101705.66;3630559;39;20050;-80
2021/06/15 02:43:57;;;;;;;3.80;1.30;;;;;;;14.23;55.17;101693.69;3579868;39;20029;-80
2021/06/15 02:46:36;;;;;;;2.80;1.08;;;;;;;14.22;55.15;101692.81;3668980;22;20061;-80
2021/06/15 02:55:23;;;;;;;4.43;1.55;;;;;;;14.06;54.72;101694.06;3598452;40;20089;-80
2021/06/15 03:06:09;;;;;;;4.47;1.50;;;;;;;13.88;55.88;101697.06;3647684;22;20047;-80
2021/06/15 03:08:38;;;;;;;5.40;1.83;;;;;;;13.82;56.85;101692.81;3617072;39;20051;-81
2021/06/15 03:11:13;;;;;;;3.28;1.33;;;;;;;13.80;55.67;101683.25;3612713;39;20016;-81
2021/06/15 03:14:25;;;;;;;5.70;1.52;;;;;;;13.77;54.77;101700.78;3616769;39;20052;-80
2021/06/15 03:17:00;;;;;;;4.05;1.20;;;;;;;13.69;55.83;101694.81;3636530;22;20039;-80
2021/06/15 03:19:39;;;;;;;5.55;1.70;;;;;;;13.65;56.21;101687.91;3617491;39;20012;-81
2021/06/15 03:22:21;;;;;;;4.03;1.83;;;;;;;13.64;55.68;101690.56;3596218;39;20588;-80
2021/06/15 03:25:05;;;;;;;8.40;2.33;;;;;;;13.61;56.75;101688.00;3638169;22;20040;-81
2021/06/15 03:27:41;;;;;;;5.80;2.10;;;;;;;13.49;56.17;101675.97;3608491;39;20030;-80
2021/06/15 03:36:15;;;;;;;5.30;1.35;;;;;;;13.45;54.91;101669.91;3651470;22;20443;-80
2021/06/15 03:38:45;;;;;;;5.82;1.75;;;;;;;13.41;57.77;101675.25;3621740;39;20590;-81
2021/06/15 03:41:17;;;;;;;7.30;2.17;;;;;;;13.37;57.35;101668.31;3624380;39;20417;-80
2021/06/15 03:46:39;;;;;;;3.97;1.10;;;;;;;13.27;57.01;101662.38;3600569;39;20020;-81
2021/06/15 03:49:13;;;;;;;7.45;2.05;;;;;;;13.27;57.06;101661.50;3601483;39;20025;-80
2021/06/15 03:51:42;;;;;;;5.18;1.85;;;;;;;13.28;58.71;101671.09;3633690;22;20044;-81
2021/06/15 03:54:12;;;;;;;4.30;1.73;;;;;;;13.23;58.27;101665.97;3617882;39;20063;-81
2021/06/15 03:56:49;;;;;;;8.02;2.40;;;;;;;13.26;58.00;101665.91;3621512;39;20028;-80
2021/06/15 04:02:16;;;;;;;5.95;1.98;;;;;;;13.31;57.10;101663.19;3649607;22;20086;-79
2021/06/15 04:04:46;;;;;;;5.25;1.77;;;;;;;13.22;58.59;101659.84;3658947;22;20348;-80
2021/06/15 04:12:28;;;;;;;7.10;2.22;;;;;;;13.37;59.91;101663.94;3605074;39;20520;-80
2021/06/15 04:14:58;;;;;;;8.32;2.15;;;;;;;13.41;59.65;101654.25;3602860;39;20029;-81
2021/06/15 04:17:28;;;;;;;3.92;1.92;;;;;;;13.44;59.38;101649.81;3608952;39;20036;-81
2021/06/15 04:22:58;;;;;;;4.38;1.40;;;;;;;13.54;58.18;101649.66;3611628;39;20086;-80
2021/06/15 04:25:32;;;;;;;6.25;1.83;;;;;;;13.53;58.98;101643.50;3607680;39;20028;-80
2021/06/15 04:28:01;;;;;;;5.90;2.40;;;;;;;13.59;58.58;101648.66;3602931;39;20024;-80
2021/06/15 04:30:34;;;;;;;6.55;2.05;;;;;;;13.62;59.22;101643.34;3718787;22;20092;31
2021/06/15 04:33:13;;;;;;;8.32;2.55;;;;;;;13.65;57.86;101638.03;3617627;39;20031;-81
2021/06/15 04:35:43;;;;;;;5.63;2.17;;;;;;;13.69;58.45;101634.47;3642660;22;20051;-81
2021/06/15 04:38:22;;;;;;;4.82;1.55;;;;;;;13.76;57.93;101624.69;3595815;40;20395;-81
2021/06/15 04:40:58;;;;;;;7.43;2.00;;;;;;;13.82;58.46;101636.81;3601786;40;20013;-81
2021/06/15 04:43:32;;;;;;;6.32;2.05;;;;;;;13.88;59.37;101640.16;3599812;40;20037;-80
2021/06/15 04:46:19;;;;;;;7.32;2.30;;;;;;;13.92;58.35;101635.72;3577038;40;20050;-81
2021/06/15 04:49:03;;;;;;;5.35;2.25;;;;;;;13.99;57.72;101647.84;3591622;40;20395;-81
2021/06/15 04:54:11;;;;;;;7.05;2.25;;;;;;;14.03;59.20;101618.81;3605321;39;20317;-81
2021/06/15 04:56:43;;;;;;;4.72;2.35;;;;;;;14.11;58.85;101620.44;3619986;39;20112;-80
2021/06/15 04:59:11;;;;;;;6.90;1.92;;;;;;;14.11;59.62;101612.53;3596704;39;20049;-80
2021/06/15 05:01:43;;;;;;;5.78;1.88;;;;;;;14.15;59.35;101614.22;3615565;39;20028;-80
2021/06/15 05:04:12;;;;;;;7.03;2.00;;;;;;;14.20;59.22;101618.47;3608425;39;20036;-81
2021/06/15 05:06:42;;;;;;;6.82;2.03;;;;;;;14.22;59.38;101624.53;3611916;39;20028;-81
2021/06/15 05:09:14;;;;;;;8.02;2.25;;;;;;;14.25;59.83;101624.47;3599105;39;20057;-80
2021/06/15 05:11:41;;;;;;;4.90;1.85;;;;;;;14.27;59.96;101609.53;3603892;39;20087;-81
2021/06/15 05:14:12;;;;;;;7.00;2.70;;;;;;;14.34;59.22;101612.00;3585065;40;20098;-81
2021/06/15 05:16:42;;;;;;;6.25;2.45;;;;;;;14.35;59.21;101619.00;3610421;39;20077;-81
2021/06/15 05:19:09;;;;;;;9.50;2.10;;;;;;;14.35;59.51;101619.00;3616558;39;20024;-80
2021/06/15 05:21:43;;;;;;;7.68;2.22;;;;;;;14.41;59.12;101613.59;3613101;39;20028;-80
2021/06/15 05:26:59;;;;;;;5.90;1.80;;;;;;;14.39;59.36;101605.72;3622650;39;20054;-81
2021/06/15 05:29:27;;;;;;;;;;;;;;;14.54;57.27;101630.81;3620996;39;20068;-80
2021/06/15 05:31:54;;;;;;;4.93;2.22;;;;;;;14.50;60.30;101634.44;3605132;39;19960;-81
2021/06/15 05:34:21;;;;;;;;;;;;;;;14.59;57.33;101634.19;3606005;39;20028;-81
2021/06/15 05:36:49;;;;;;;6.22;2.40;;;;;;;14.58;59.75;101627.22;3649017;22;19976;-81
2021/06/15 05:39:18;;;;;;;5.28;1.85;;;;;;;14.60;59.35;101614.91;3603295;39;20382;-81
2021/06/15 05:41:46;;;;;;;11.43;2.95;;;;;;;14.62;60.87;101609.59;3604070;39;20024;-80
2021/06/15 05:44:17;;;;;;;9.20;2.85;;;;;;;14.65;59.99;101623.56;3594510;40;20028;-81
2021/06/15 05:46:49;;;;;;;5.38;1.90;;;;;;;14.69;59.72;101614.66;3609358;39;20086;-81
2021/06/15 05:49:16;;;;;;;4.07;1.65;;;;;;;14.72;60.11;101608.47;3604102;40;20289;-80
2021/06/15 05:51:43;;;;;;;3.77;1.53;;;;;;;14.73;60.04;101608.44;3618885;39;20083;-80
2021/06/15 05:54:13;;;;;;;6.38;2.22;;;;;;;14.79;60.45;101605.63;3612734;39;20267;-81
2021/06/15 05:56:44;;;;;;;8.60;2.40;;;;;;;14.84;60.27;101610.78;3603821;39;20693;-80
2021/06/15 05:59:15;;;;;;;5.18;1.70;;;;;;;14.88;59.88;101619.47;3602466;39;20081;-80
2021/06/15 06:01:42;;;;;;;7.30;1.95;;;;;;;14.91;60.79;101622.88;3603440;39;20049;-81
2021/06/15 06:04:12;;;;;;;4.20;1.80;;;;;;;14.95;59.97;101605.22;3604130;39;20020;-81
2021/06/15 06:09:27;;;;;;;6.88;1.92;;;;;;;15.03;59.90;101587.50;3603948;39;20081;-81
2021/06/15 06:11:55;;;;;;;8.10;1.65;;;;;;;15.08;60.07;101582.13;3589460;39;20327;-81
2021/06/15 06:14:25;;;;;;;;;;;;;;;15.17;57.85;101584.50;3607941;39;20393;-80
2021/06/15 06:16:53;;;;;;;6.05;2.22;;;;;;;15.13;60.29;101573.19;3612789;40;19971;-80
2021/06/15 06:19:27;;;;;;;5.97;2.10;;;;;;;15.19;59.26;101572.16;3611367;39;20036;-80
2021/06/15 06:22:04;;;;;;;9.05;2.33;;;;;;;15.19;59.49;101580.91;3612595;39;20478;-81
2021/06/15 06:24:34;;;;;;;6.00;2.10;;;;;;;15.21;59.42;101576.47;3603587;40;20519;-80
2021/06/15 06:27:04;;;;;;;4.97;1.58;;;;;;;15.27;60.29;101578.94;3603816;39;20036;-81
2021/06/15 06:29:31;;;;;;;7.85;1.85;;;;;;;15.28;61.02;101588.53;3611383;39;20080;-81
2021/06/15 06:31:58;;;;;;;4.88;1.33;;;;;;;15.33;59.91;101583.16;3604748;39;20027;-81
2021/06/15 06:34:27;;;;;;;3.80;1.88;;;;;;;15.46;59.93;101586.28;3603813;40;20398;-81
2021/06/15 06:36:53;;;;;;;5.38;1.63;;;;;;;15.51;60.60;101589.66;3613565;39;20040;-81
2021/06/15 06:39:22;;;;;;;6.88;2.10;;;;;;;15.61;60.02;101588.47;3612651;39;20500;-80
2021/06/15 06:41:52;;;;;;;10.95;2.63;;;;;;;15.72;60.40;101590.84;3607061;39;20028;-81
2021/06/15 06:44:24;;;;;;;4.75;1.77;;;;;;;15.77;59.56;101570.50;3612269;39;20012;-81
2021/06/15 06:46:52;;;;;;;7.60;2.40;;;;;;;15.88;60.09;101578.94;3613992;39;20023;-81
2021/06/15 06:49:22;;;;;;;4.60;1.45;;;;;;;15.96;58.86;101578.69;3612767;39;20080;-80
2021/06/15 06:51:49;;;;;;;8.57;1.80;;;;;;;16.00;59.46;101578.53;3613113;39;20073;-81
2021/06/15 06:54:15;;;;;;;10.20;3.03;;;;;;;16.04;59.95;101574.03;3608804;39;20024;-80
2021/06/15 06:56:42;;;;;;;5.18;2.20;;;;;;;16.11;59.16;101579.97;3610843;39;20072;-79
2021/06/15 06:59:09;;;;;;;5.25;1.70;;;;;;;16.08;59.14;101580.94;3612020;39;20684;-80
2021/06/15 07:01:38;;;;;;;7.80;1.63;;;;;;;16.13;58.91;101581.66;3598304;40;20042;-80
2021/06/15 07:04:08;;;;;;;6.72;1.77;;;;;;;16.13;59.36;101573.75;3605070;39;20016;-81
2021/06/15 07:06:40;;;;;;;4.00;1.60;;;;;;;16.16;59.20;101578.91;3616777;39;20044;-80
2021/06/15 07:09:07;;;;;;;9.15;2.80;;;;;;;16.13;59.90;101565.84;3616646;39;20031;-81
2021/06/15 07:11:34;;;;;;;6.47;1.88;;;;;;;16.20;59.61;101563.88;3613283;39;20050;-81
2021/06/15 07:14:06;;;;;;;7.97;1.97;;;;;;;16.31;58.79;101572.28;3621739;39;20032;-81
2021/06/15 07:16:33;;;;;;;11.23;2.88;;;;;;;16.30;59.28;101566.16;3608249;39;20040;-80
2021/06/15 07:19:04;;;;;;;11.27;3.00;;;;;;;16.43;59.64;101571.06;3618718;39;20499;-81
2021/06/15 07:21:31;;;;;;;8.02;2.78;;;;;;;16.43;59.15;101571.06;3613278;39;20040;-81
2021/06/15 07:23:58;;;;;;;9.48;2.63;;;;;;;16.53;59.60;101578.59;3611750;39;20722;-81
2021/06/15 07:26:39;;;;;;;7.88;3.45;;;;;;;16.64;57.86;101564.19;3612044;39;20583;-81
2021/06/15 07:29:31;;;;;;;11.20;2.70;;;;;;;16.75;57.59;101562.06;3611074;39;20020;-81
2021/06/15 07:34:50;;;;;;;6.60;2.17;;;;;;;16.80;57.39;101571.53;3599120;40;20080;-81
2021/06/15 07:37:17;;;;;;;6.00;2.10;;;;;;;16.94;57.39;101578.97;3609519;39;20060;-80
2021/06/15 07:39:44;;;;;;;6.90;2.30;;;;;;;16.96;57.00;101561.31;3592841;40;20403;-81
2021/06/15 07:42:11;;;;;;;7.80;2.45;;;;;;;17.14;57.09;101570.34;3592581;40;20440;-80
2021/06/15 07:44:39;;;;;;;9.93;2.30;;;;;;;17.35;56.85;101564.28;3597246;40;20013;-81
2021/06/15 07:47:08;;;;;;;6.97;2.00;;;;;;;17.50;55.95;101556.72;3580693;40;20277;-81
2021/06/15 07:49:35;;;;;;;5.40;2.22;;;;;;;17.63;55.23;101558.81;3580083;40;20084;-81
2021/06/15 07:52:04;;;;;;;6.30;1.73;;;;;;;17.73;55.56;101535.56;3579356;40;20030;-81
2021/06/15 07:54:36;;;;;;;5.50;2.33;;;;;;;17.87;55.63;101525.31;3572335;40;20040;-80
2021/06/15 07:57:05;;;;;;;7.53;1.90;;;;;;;18.00;54.79;101514.28;3578156;40;20041;-81
2021/06/15 07:59:36;;;;;;;6.57;1.80;;;;;;;18.13;54.65;101526.06;3578399;40;20029;-81
2021/06/15 08:02:04;;;;;;;3.88;1.55;;;;;;;18.16;53.64;101512.72;3579117;40;20866;-81
2021/06/15 08:04:35;;;;;;;8.68;2.17;;;;;;;18.30;53.18;101522.72;3580015;40;20374;-81
2021/06/15 08:07:09;;;;;;;7.28;2.08;;;;;;;18.48;52.70;101531.66;3583350;40;20071;-80
2021/06/15 08:09:39;;;;;;;;;;;;;;;18.62;54.05;101524.00;3580920;40;20045;-81
2021/06/15 08:12:20;;;;;;;8.63;1.83;;;;;;;18.68;52.73;101510.53;3579084;40;19973;-81
2021/06/15 08:14:47;;;;;;;7.15;2.40;;;;;;;18.69;51.75;101506.09;3579865;40;22124;-80
2021/06/15 08:17:15;;;;;;;6.43;1.70;;;;;;;18.74;50.71;101504.13;3586340;40;20546;-80
2021/06/15 08:19:42;;;;;;;;;;;;;;;18.93;53.11;101507.66;3600013;40;20086;-80
2021/06/15 08:22:10;;;;;;;4.35;1.90;;;;;;;18.91;50.25;101512.19;3600342;40;20024;-81
2021/06/15 08:24:38;;;;;;;11.55;2.20;;;;;;;18.91;49.36;101505.09;3598811;40;20024;-81
2021/06/15 08:27:05;;;;;;;7.45;1.98;;;;;;;19.05;49.43;101506.25;3603117;40;20090;-81
2021/06/15 08:29:39;;;;;;;7.07;2.35;;;;;;;19.14;50.54;101505.84;3594018;40;20538;-81
2021/06/15 08:32:06;;;;;;;6.40;1.85;;;;;;;19.17;49.50;101511.88;3596911;40;20040;-82
2021/06/15 08:34:35;;;;;;;5.78;1.45;;;;;;;19.28;50.88;101503.44;3591295;40;20033;-81
2021/06/15 08:37:02;;;;;;;4.85;1.50;;;;;;;19.44;51.25;101504.41;3591840;40;20664;-81
2021/06/15 08:39:34;;;;;;;8.80;2.00;;;;;;;19.61;49.63;101500.16;3578530;40;20092;-81
2021/06/15 08:42:05;;;;;;;6.35;2.17;;;;;;;19.77;49.30;101495.84;3590773;40;20041;-81
2021/06/15 08:44:34;;;;;;;5.60;1.50;;;;;;;19.89;47.38;101484.63;3595098;40;20050;-81
2021/06/15 08:47:01;;;;;;;6.10;1.48;;;;;;;19.97;47.26;101486.88;3590654;40;20029;-81
2021/06/15 08:49:29;;;;;;;7.20;1.50;;;;;;;20.16;44.51;101503.59;3590949;40;20326;-81
2021/06/15 08:51:57;;;;;;;5.82;1.75;;;;;;;20.29;44.99;101482.66;3590527;40;20033;-81
2021/06/15 08:54:29;;;;;;;7.28;2.00;;;;;;;20.43;44.22;101481.94;3584200;40;20041;-81
2021/06/15 08:56:59;;;;;;;7.88;1.70;;;;;;;20.55;45.25;101473.38;3583686;40;20041;-81
2021/06/15 08:59:29;;;;;;;7.32;1.85;;;;;;;20.64;45.45;101472.06;3580259;40;20029;-82
2021/06/15 09:02:05;;;;;;;6.97;1.17;;;;;;;20.75;43.93;101459.06;3576268;40;20045;-81
2021/06/15 09:04:35;;;;;;;6.13;1.33;;;;;;;20.82;44.76;101455.13;3591019;40;20036;-81
2021/06/15 09:07:04;;;;;;;11.18;1.70;;;;;;;20.86;43.13;101451.38;3586530;40;20035;-81
2021/06/15 09:09:42;;;;;;;7.90;1.60;;;;;;;20.99;45.98;101440.97;3590622;40;20564;-81
2021/06/15 09:12:21;;;;;;;5.88;1.15;;;;;;;21.01;45.87;101428.44;3574098;40;20397;-81
2021/06/15 09:14:55;;;;;;;5.50;1.30;;;;;;;21.10;45.07;101427.09;3590339;40;20033;-81
2021/06/15 09:17:34;;;;;;;5.45;1.50;;;;;;;21.22;45.46;101429.06;3586770;40;20029;-81
2021/06/15 09:20:22;;;;;;;4.72;1.13;;;;;;;21.33;45.49;101429.34;3583662;40;20041;-81
2021/06/15 09:23:09;;;;;;;6.18;1.45;;;;;;;21.47;46.73;101420.59;3589478;40;20033;-81
2021/06/15 09:25:48;;;;;;;2.58;0.90;;;;;;;21.62;45.76;101418.88;3586148;40;20043;-82
2021/06/15 09:28:22;;;;;;;8.05;1.70;;;;;;;21.75;44.29;101415.44;3579546;40;20038;-81
2021/06/15 09:30:57;;;;;;;5.47;1.73;;;;;;;21.88;44.61;101418.22;3579978;40;20033;-81
2021/06/15 09:33:46;;;;;;;6.03;1.10;;;;;;;22.06;44.89;101412.78;3588416;40;20065;-81
2021/06/15 09:36:17;;;;;;;4.63;1.42;;;;;;;22.18;43.42;101409.41;3582433;40;20152;-81
2021/06/15 09:39:01;;;;;;;5.93;1.80;;;;;;;22.37;44.38;101411.81;3589543;40;20584;-81
2021/06/15 09:41:48;;;;;;;5.05;1.58;;;;;;;22.53;44.77;101405.44;3579310;40;21004;-81
2021/06/15 09:44:26;;;;;;;5.70;1.88;;;;;;;22.69;44.16;101401.84;3583514;40;20035;-81
2021/06/15 09:46:57;;;;;;;8.27;1.60;;;;;;;22.82;43.96;101402.78;3581085;40;20033;-82
2021/06/15 09:49:29;;;;;;;4.15;1.30;;;;;;;22.97;43.52;101396.53;3571004;40;20090;-82
2021/06/15 09:52:10;;;;;;;4.05;1.13;;;;;;;23.13;44.51;101393.72;3579901;40;20029;-82
2021/06/15 09:54:47;;;;;;;6.20;2.00;;;;;;;23.24;46.14;101391.22;3575073;40;20804;-82
2021/06/15 09:57:37;;;;;;;6.10;2.00;;;;;;;23.38;46.21;101378.81;3580659;40;20041;-81
2021/06/15 10:00:18;;;;;;;6.68;1.50;;;;;;;23.46;42.95;101382.66;3590573;40;20087;-82
2021/06/15 10:02:54;;;;;;;4.47;1.77;;;;;;;23.52;45.17;101384.09;3580668;40;20039;-81
2021/06/15 10:05:35;;;;;;;10.85;2.80;;;;;;;23.59;46.11;101387.22;3581100;40;20340;-82
2021/06/15 10:08:09;;;;;;;6.25;2.30;;;;;;;23.61;46.43;101385.28;3574272;40;20034;-81
2021/06/15 10:10:42;;;;;;;8.05;2.42;;;;;;;23.59;46.23;101372.06;3569451;40;20086;-82
2021/06/15 10:13:11;;;;;;;8.43;2.38;;;;;;;23.49;45.99;101370.97;3584541;40;20743;-82
2021/06/15 10:15:41;;;;;;;11.73;3.00;;;;;;;23.46;46.37;101360.50;3581222;40;20087;-82
2021/06/15 10:18:09;;;;;;;7.30;2.42;;;;;;;23.46;46.81;101358.69;3584018;40;20029;-82
2021/06/15 10:20:37;;;;;;;6.38;2.50;;;;;;;23.49;47.06;101355.81;3590130;40;20649;-81
2021/06/15 10:23:06;;;;;;;6.43;1.45;;;;;;;23.55;43.41;101358.06;3580770;40;20033;-81
2021/06/15 10:25:34;;;;;;;6.22;1.33;;;;;;;23.52;40.15;101344.13;3581083;40;20417;-81
2021/06/15 10:28:13;;;;;;;5.22;1.27;;;;;;;23.61;41.96;101347.94;3586029;40;20169;-81
2021/06/15 10:30:42;;;;;;;6.70;2.40;;;;;;;23.55;44.57;101335.88;3589845;40;20040;-82
2021/06/15 10:33:16;;;;;;;7.07;2.55;;;;;;;23.53;46.00;101320.00;3589723;40;20039;-81
2021/06/15 10:35:54;;;;;;;8.32;2.45;;;;;;;23.75;46.29;101334.59;3574602;40;20703;-81
2021/06/15 10:38:25;;;;;;;11.35;3.20;;;;;;;23.91;46.77;101329.91;3583876;40;20313;-81
2021/06/15 10:41:22;;;;;;;9.52;2.28;;;;;;;24.16;46.88;101333.53;3587912;40;20041;-81
2021/06/15 10:43:57;;;;;;;10.77;2.88;;;;;;;24.34;45.73;101321.59;3584330;40;20042;-81
2021/06/15 10:46:32;;;;;;;8.30;2.72;;;;;;;24.52;45.15;101317.63;3588543;40;20069;-82
2021/06/15 10:49:13;;;;;;;7.68;3.10;;;;;;;24.75;45.50;101315.13;3589074;40;20033;-82
2021/06/15 10:51:51;;;;;;;9.65;3.00;;;;;;;24.90;45.48;101298.00;3576702;40;20037;-82
2021/06/15 10:54:41;;;;;;;7.80;2.35;;;;;;;25.22;45.82;101298.28;3567281;40;20287;-82
2021/06/15 10:57:19;;;;;;;8.85;2.50;;;;;;;25.65;45.51;101294.19;3584228;40;20687;-82
2021/06/15 11:00:33;;;;;;;9.23;2.58;;;;;;;26.14;44.88;101291.25;3576033;40;20072;-82
2021/06/15 11:03:16;;;;;;;9.02;2.28;;;;;;;26.76;44.21;101281.84;3574615;40;20033;-82
2021/06/15 11:06:04;;;;;;;6.97;2.60;;;;;;;27.22;42.84;101273.59;3569094;40;20056;-82
2021/06/15 11:08:33;;;;;;;5.22;1.52;;;;;;;27.44;35.49;101278.00;3575096;40;20799;-82
2021/06/15 11:11:01;;;;;;;6.43;1.55;;;;;;;27.70;31.88;101274.91;3572430;40;20033;-82
2021/06/15 11:13:49;;;;;;;5.97;1.48;;;;;;;28.03;37.59;101269.34;3575502;40;20037;-82
2021/06/15 11:16:35;;;;;;;2.90;1.00;;;;;;;28.41;36.68;101263.28;3584158;40;20040;-82
2021/06/15 11:19:11;;;;;;;2.95;1.17;;;;;;;28.75;33.33;101256.75;3577791;40;20076;-82
2021/06/15 11:21:58;;;;;;;4.18;1.20;;;;;;;28.96;33.04;101233.28;3583127;40;20040;-82
2021/06/15 11:24:51;;;;;;;2.47;0.95;;;;;;;29.24;29.48;101244.19;3569960;40;20037;-82
2021/06/15 11:27:24;;;;;;;4.35;1.10;;;;;;;29.57;30.51;101245.59;3569782;40;20044;-82
2021/06/15 11:29:57;;;;;;;5.25;1.30;;;;;;;29.60;28.87;101256.03;3572868;40;20588;-82
2021/06/15 11:32:29;;;;;;;3.17;0.90;;;;;;;29.56;29.01;101244.75;3582957;40;20037;-82
2021/06/15 11:35:22;;;;;;;4.97;1.30;;;;;;;29.61;31.96;101244.31;3584102;40;20036;-82
2021/06/15 11:37:51;;;;;;;6.78;1.75;;;;;;;29.49;27.64;101243.56;3575314;40;20041;-82
2021/06/15 11:40:39;;;;;;;4.57;1.13;;;;;;;29.53;31.77;101236.91;3583154;40;20079;-82
2021/06/15 11:43:10;;;;;;;7.50;1.45;;;;;;;29.50;28.68;101229.13;3587479;40;20033;-82
2021/06/15 11:45:42;;;;;;;4.90;1.30;;;;;;;29.49;27.35;101243.56;3583608;40;20030;-82
2021/06/15 11:48:33;;;;;;;4.43;1.08;;;;;;;29.51;30.98;101238.06;3573988;40;20291;-82
2021/06/15 11:51:10;;;;;;;4.85;1.52;;;;;;;29.35;28.92;101230.56;3571556;40;20095;-82
2021/06/15 11:53:41;;;;;;;3.88;1.05;;;;;;;29.16;27.79;101226.91;3577476;40;20041;-82
2021/06/15 11:56:13;;;;;;;7.70;1.60;;;;;;;29.01;28.23;101233.72;3566848;40;20068;-83
2021/06/15 11:58:47;;;;;;;6.80;1.77;;;;;;;28.78;26.95;101233.09;3574999;40;20469;-82
2021/06/15 12:01:16;;;;;;;2.92;0.98;;;;;;;28.62;27.42;101222.91;3587571;40;20037;-82
2021/06/15 12:03:49;;;;;;;3.50;1.20;;;;;;;28.50;28.74;101218.66;3584541;40;20034;-83
2021/06/15 12:06:20;;;;;;;2.60;0.98;;;;;;;28.30;28.60;101208.81;3577476;40;20401;-82
2021/06/15 12:08:49;;;;;;;2.90;1.00;;;;;;;28.07;29.30;101197.41;3588145;40;20044;-82
2021/06/15 12:11:19;;;;;;;7.13;1.20;;;;;;;28.05;30.16;101213.66;3582356;40;20037;-83
2021/06/15 12:13:49;;;;;;;4.35;1.38;;;;;;;27.95;29.93;101207.41;3569350;40;20761;-82
2021/06/15 12:16:25;;;;;;;4.25;1.25;;;;;;;27.87;30.23;101204.53;3579682;40;20040;-82
2021/06/15 12:18:55;;;;;;;5.17;1.23;;;;;;;27.76;30.42;101197.44;3579099;40;20036;-83
2021/06/15 12:21:25;;;;;;;3.47;1.13;;;;;;;27.74;31.12;101206.63;3579201;40;20041;-82
2021/06/15 12:24:04;;;;;;;3.55;1.30;;;;;;;27.70;31.30;101191.72;3587650;40;20048;-82
2021/06/15 12:26:37;;;;;;;4.55;1.17;;;;;;;27.58;29.79;101189.13;3580818;40;20450;-82
2021/06/15 12:29:21;;;;;;;5.05;1.40;;;;;;;27.69;31.07;101182.81;3589466;40;20090;-82
2021/06/15 12:31:53;;;;;;;3.33;1.08;;;;;;;27.76;31.18;101193.91;3578518;40;20079;-82
2021/06/15 12:34:21;;;;;;;5.70;1.63;;;;;;;27.84;30.88;101183.34;3588673;40;20039;-82
2021/06/15 12:36:51;;;;;;;2.85;0.82;;;;;;;28.01;30.47;101181.84;3589214;40;20097;-82
2021/06/15 12:39:21;;;;;;;6.22;1.02;;;;;;;28.08;27.31;101170.44;3588186;40;20040;-83
2021/06/15 12:41:51;;;;;;;3.80;1.05;;;;;;;28.09;25.66;101161.41;3592004;40;20400;-82
2021/06/15 12:44:26;;;;;;;1.55;0.73;;;;;;;28.17;28.53;101161.53;3597602;40;20033;-82
2021/06/15 12:47:12;;;;;;;1.80;0.80;;;;;;;28.21;29.00;101163.97;3586661;40;20117;-82
2021/06/15 12:49:53;;;;;;;;;;;;;;;28.28;31.47;101165.94;3595580;40;20436;-82
2021/06/15 12:52:20;;;;;;;2.78;0.88;;;;;;;28.15;25.69;101152.78;3596975;40;19994;-82
2021/06/15 12:54:48;;;;;;;3.17;0.95;;;;;;;28.03;25.81;101131.53;3559805;40;23188;-82
2021/06/15 12:57:23;;;;;;;2.28;0.62;;;;;;;28.02;26.56;101138.75;1139061;40;10022814;-82
2021/06/15 13:00:05;;;;;;;3.42;1.00;;;;;;;28.06;28.67;101128.59;2829318;40;10001099;-82
2021/06/15 13:02:37;;;;;;;8.90;1.02;;;;;;;28.01;27.96;101130.84;3582600;40;20391;-83
2021/06/15 13:05:15;;;;;;;4.07;0.82;;;;;;;28.00;28.21;101124.63;3579305;40;20037;-82
2021/06/15 13:08:00;;;;;;;6.95;0.98;;;;;;;28.22;29.48;101128.91;3579996;40;20096;-82